Time;durP1;ratioP1;P1;durP2;ratioP2;P2;SDS_P1;SDS_P2;PMS_P1;PMS_P2;Temp;Humidity;BMP_temperature;BMP_pressure;BME280_temperature;BME280_humidity;BME280_pressure;Samples;Min_cycle;Max_cycle;Signal;HPM_P1;HPM_P2
2021/11/16 00:00:43;;;;;;;35.93;18.23;;;7.80;99.90;;;;;;4961446;28;20241;-52
2021/11/16 00:03:11;;;;;;;28.63;15.80;;;7.80;99.90;;;;;;4980160;28;20203;-53
2021/11/16 00:05:38;;;;;;;30.80;17.17;;;7.90;99.90;;;;;;4978297;28;20234;-53
2021/11/16 00:08:06;;;;;;;31.10;16.30;;;7.80;99.90;;;;;;4958434;28;20281;-54
2021/11/16 00:10:34;;;;;;;35.63;17.80;;;7.70;99.90;;;;;;4961249;28;20273;-55
2021/11/16 00:13:01;;;;;;;30.63;16.50;;;7.80;99.90;;;;;;4975939;28;20247;-52
2021/11/16 00:15:28;;;;;;;31.73;16.30;;;7.70;99.90;;;;;;4977627;28;20249;-52
2021/11/16 00:17:56;;;;;;;30.77;16.73;;;7.80;99.90;;;;;;4976900;28;20281;-53
2021/11/16 00:20:23;;;;;;;34.40;17.83;;;7.90;99.90;;;;;;4974133;28;20307;-53
2021/11/16 00:22:50;;;;;;;30.60;17.97;;;7.80;99.90;;;;;;4976274;28;20286;-53
2021/11/16 00:25:51;;;;;;;33.67;16.83;;;7.90;99.90;;;;;;4975610;28;20310;-52
2021/11/16 00:28:11;;;;;;;33.10;17.00;;;7.90;99.90;;;;;;4973690;28;20286;-52
2021/11/16 00:30:39;;;;;;;28.93;15.53;;;7.90;99.90;;;;;;4976139;28;20234;-54
2021/11/16 00:33:06;;;;;;;28.37;16.17;;;7.90;99.90;;;;;;4976109;28;20715;-54
2021/11/16 00:35:37;;;;;;;28.73;16.43;;;7.80;99.90;;;;;;4977314;28;20268;-54
2021/11/16 00:38:07;;;;;;;33.43;18.13;;;7.80;99.90;;;;;;4973512;28;20200;-52
2021/11/16 00:40:34;;;;;;;37.17;17.63;;;7.90;99.90;;;;;;4975725;28;20243;-53
2021/11/16 00:43:04;;;;;;;30.63;16.60;;;7.80;99.90;;;;;;4972304;28;20207;-52
2021/11/16 00:45:31;;;;;;;28.93;16.87;;;7.80;99.90;;;;;;4974014;28;20781;-53
2021/11/16 00:47:58;;;;;;;30.43;15.87;;;7.80;99.90;;;;;;4976991;28;20198;-52
2021/11/16 00:50:25;;;;;;;30.40;17.63;;;7.80;99.90;;;;;;4980749;28;20632;-53
2021/11/16 00:52:52;;;;;;;31.83;17.17;;;7.80;99.90;;;;;;4980665;28;20240;-54
2021/11/16 00:55:19;;;;;;;29.77;16.93;;;7.80;99.90;;;;;;4964631;28;20673;-51
2021/11/16 00:57:46;;;;;;;31.40;16.97;;;7.80;99.90;;;;;;4978113;28;20249;-55
2021/11/16 01:00:15;;;;;;;31.27;16.93;;;7.80;99.90;;;;;;4979450;28;20306;-53
2021/11/16 01:02:43;;;;;;;28.13;16.13;;;7.90;99.90;;;;;;4981047;28;20231;-53
2021/11/16 01:05:12;;;;;;;31.10;17.63;;;7.80;99.90;;;;;;4983353;28;20204;-52
2021/11/16 01:07:40;;;;;;;33.00;17.47;;;7.80;99.90;;;;;;4980012;28;20209;-52
2021/11/16 01:10:10;;;;;;;36.73;18.33;;;7.80;99.90;;;;;;4979867;28;20296;-52
2021/11/16 01:12:38;;;;;;;29.63;16.07;;;7.80;99.90;;;;;;4978693;28;20239;-54
2021/11/16 01:15:08;;;;;;;30.53;16.87;;;7.80;99.90;;;;;;4979325;28;20381;-53
2021/11/16 01:17:35;;;;;;;34.90;17.63;;;7.70;99.90;;;;;;4979416;28;20285;-53
2021/11/16 01:20:05;;;;;;;31.47;16.90;;;7.80;99.90;;;;;;4979186;28;20754;-52
2021/11/16 01:22:32;;;;;;;31.43;17.40;;;7.70;99.90;;;;;;4979623;28;20302;-55
2021/11/16 01:24:59;;;;;;;32.07;16.90;;;7.60;99.90;;;;;;4978364;28;20253;-53
2021/11/16 01:27:32;;;;;;;30.07;17.50;;;7.70;99.90;;;;;;4980062;28;20227;-53
2021/11/16 01:30:00;;;;;;;36.10;17.13;;;7.70;99.90;;;;;;4981271;28;20231;-54
2021/11/16 01:34:54;;;;;;;33.83;18.10;;;7.70;99.90;;;;;;4980845;28;20708;-52
2021/11/16 01:37:23;;;;;;;32.97;17.60;;;7.80;99.90;;;;;;4979636;28;21186;-52
2021/11/16 01:39:51;;;;;;;33.33;17.70;;;7.80;99.90;;;;;;4980444;28;20677;-53
2021/11/16 01:42:20;;;;;;;32.50;17.73;;;7.80;99.90;;;;;;4978105;28;20216;-52
2021/11/16 01:44:49;;;;;;;33.33;17.70;;;7.90;99.90;;;;;;4977899;28;20210;-52
2021/11/16 01:47:16;;;;;;;33.07;16.30;;;7.90;99.90;;;;;;4977664;28;20245;-51
2021/11/16 01:49:43;;;;;;;30.80;17.43;;;7.80;99.90;;;;;;4981027;28;22774;-51
2021/11/16 01:52:10;;;;;;;30.57;16.23;;;7.90;99.90;;;;;;4980716;28;20234;-52
2021/11/16 01:54:38;;;;;;;33.80;18.17;;;7.80;99.90;;;;;;4981210;28;20306;-52
2021/11/16 01:57:06;;;;;;;30.33;17.20;;;7.80;99.90;;;;;;4977999;28;20286;-53
2021/11/16 01:59:34;;;;;;;32.67;16.47;;;7.80;99.90;;;;;;4980706;28;20190;-52
2021/11/16 02:02:03;;;;;;;28.50;17.03;;;7.70;99.90;;;;;;4978773;28;20650;-53
2021/11/16 02:04:30;;;;;;;31.50;17.53;;;7.70;99.90;;;;;;4980049;28;20287;-53
2021/11/16 02:06:57;;;;;;;30.70;16.77;;;7.70;99.90;;;;;;4980274;28;20690;-54
2021/11/16 02:09:25;;;;;;;31.50;18.03;;;7.80;99.90;;;;;;4977323;28;20203;-53
2021/11/16 02:11:53;;;;;;;33.27;17.33;;;7.90;99.90;;;;;;4980206;28;21087;-53
2021/11/16 02:14:20;;;;;;;36.43;17.33;;;7.70;99.90;;;;;;4977680;28;20274;-52
2021/11/16 02:16:48;;;;;;;28.07;16.17;;;7.80;99.90;;;;;;4980039;28;20914;-55
2021/11/16 02:19:18;;;;;;;28.17;15.90;;;7.80;99.90;;;;;;4979030;28;20718;-53
2021/11/16 02:21:46;;;;;;;30.70;16.40;;;7.70;99.90;;;;;;4979979;28;21223;-53
2021/11/16 02:24:14;;;;;;;32.57;17.23;;;7.70;99.90;;;;;;4979919;28;20731;-54
2021/11/16 02:26:42;;;;;;;31.43;15.80;;;7.70;99.90;;;;;;4974687;28;20246;-55
2021/11/16 02:29:09;;;;;;;32.33;17.83;;;7.70;99.90;;;;;;4957313;28;20219;-53
2021/11/16 02:31:36;;;;;;;28.20;16.23;;;7.80;99.90;;;;;;4978440;28;20659;-52
2021/11/16 02:34:06;;;;;;;30.53;18.03;;;7.90;99.90;;;;;;4980588;28;20210;-54
2021/11/16 02:36:34;;;;;;;31.07;18.13;;;7.90;99.90;;;;;;4975557;28;20700;-53
2021/11/16 02:39:04;;;;;;;33.03;17.03;;;7.70;99.90;;;;;;4979226;28;20222;-53
2021/11/16 02:41:31;;;;;;;30.10;17.23;;;7.70;99.90;;;;;;4978329;28;20640;-53
2021/11/16 02:44:01;;;;;;;32.77;17.70;;;7.50;99.90;;;;;;4977599;28;20310;-53
2021/11/16 02:46:28;;;;;;;28.83;16.70;;;7.50;99.90;;;;;;4975991;28;20206;-52
2021/11/16 02:48:55;;;;;;;32.97;17.77;;;7.70;99.90;;;;;;4977967;28;20372;-53
2021/11/16 02:51:23;;;;;;;31.07;17.10;;;7.70;99.90;;;;;;4977174;28;20241;-52
2021/11/16 02:53:50;;;;;;;31.17;17.13;;;7.70;99.90;;;;;;4976946;28;20211;-51
2021/11/16 02:56:17;;;;;;;29.90;16.87;;;7.70;99.90;;;;;;4977995;28;20626;-53
2021/11/16 02:58:44;;;;;;;30.77;16.07;;;7.60;99.90;;;;;;4975403;28;20234;-53
2021/11/16 03:01:14;;;;;;;31.13;16.90;;;7.70;99.90;;;;;;4976041;28;20249;-53
2021/11/16 03:03:42;;;;;;;34.83;18.47;;;7.60;99.90;;;;;;4978514;28;20225;-52
2021/11/16 03:06:11;;;;;;;32.07;17.40;;;7.50;99.90;;;;;;4961606;28;20301;-54
2021/11/16 03:08:38;;;;;;;35.53;18.47;;;7.50;99.90;;;;;;4959481;28;20198;-52
2021/11/16 03:11:09;;;;;;;34.80;18.97;;;7.70;99.90;;;;;;4958356;28;20559;-51
2021/11/16 03:13:37;;;;;;;33.37;18.43;;;7.60;99.90;;;;;;4977822;28;20559;-53
2021/11/16 03:16:11;;;;;;;32.77;18.53;;;7.50;99.90;;;;;;4976593;28;20236;-52
2021/11/16 03:18:39;;;;;;;30.13;17.73;;;7.70;99.90;;;;;;4977058;28;20756;-52
2021/11/16 03:21:07;;;;;;;38.30;18.63;;;7.80;99.90;;;;;;4977230;28;20676;-53
2021/11/16 03:23:34;;;;;;;31.70;17.10;;;7.80;99.90;;;;;;4976597;28;20206;-53
2021/11/16 03:26:02;;;;;;;39.70;18.30;;;7.90;99.90;;;;;;4975093;28;20330;-54
2021/11/16 03:28:33;;;;;;;32.73;18.33;;;7.90;99.90;;;;;;4975466;28;20308;-52
2021/11/16 03:31:18;;;;;;;35.50;17.83;;;7.80;99.90;;;;;;4976637;28;20237;-51
2021/11/16 03:33:45;;;;;;;28.80;17.50;;;7.90;99.90;;;;;;4977229;28;20206;-53
2021/11/16 03:36:12;;;;;;;37.30;18.67;;;7.80;99.90;;;;;;4976639;28;20649;-53
2021/11/16 03:38:41;;;;;;;32.30;17.20;;;7.90;99.90;;;;;;4959699;28;20409;-54
2021/11/16 03:41:08;;;;;;;32.37;17.57;;;7.90;99.90;;;;;;4978007;28;20224;-53
2021/11/16 03:43:35;;;;;;;35.87;18.47;;;7.90;99.90;;;;;;4976223;28;20627;-53
2021/11/16 03:46:02;;;;;;;31.10;18.03;;;7.90;99.90;;;;;;4974976;28;20282;-53
2021/11/16 03:48:29;;;;;;;37.77;19.17;;;7.90;99.90;;;;;;4975361;28;20306;-52
2021/11/16 03:50:57;;;;;;;34.57;18.57;;;7.80;99.90;;;;;;4976220;28;20239;-54
2021/11/16 03:53:24;;;;;;;30.33;17.83;;;7.80;99.90;;;;;;4975781;28;20294;-53
2021/11/16 03:55:51;;;;;;;32.77;19.47;;;7.70;99.90;;;;;;4976358;28;20671;-52
2021/11/16 03:58:21;;;;;;;33.30;18.63;;;7.80;99.90;;;;;;4975421;28;20293;-54
2021/11/16 04:00:56;;;;;;;33.40;19.07;;;7.90;99.90;;;;;;4964969;28;20218;-55
2021/11/16 04:03:25;;;;;;;31.13;17.63;;;7.80;99.90;;;;;;4977878;28;20199;-53
2021/11/16 04:05:53;;;;;;;39.03;18.90;;;7.80;99.90;;;;;;4975553;28;20364;-51
2021/11/16 04:08:20;;;;;;;35.27;18.67;;;7.80;99.90;;;;;;4959156;28;20239;-54
2021/11/16 04:10:49;;;;;;;32.60;18.97;;;7.90;99.90;;;;;;4974836;28;20227;-51
2021/11/16 04:13:17;;;;;;;33.90;17.77;;;7.90;99.90;;;;;;4975477;28;20258;-51
2021/11/16 04:15:47;;;;;;;33.10;18.97;;;7.90;99.90;;;;;;4978162;28;20649;-52
2021/11/16 04:18:15;;;;;;;33.13;19.40;;;7.80;99.90;;;;;;4974153;28;20229;-52
2021/11/16 04:20:46;;;;;;;31.17;17.70;;;7.90;99.90;;;;;;4976565;28;20313;-52
2021/11/16 04:23:14;;;;;;;35.30;17.00;;;7.90;99.90;;;;;;4977809;28;20316;-52
2021/11/16 04:25:42;;;;;;;32.27;17.43;;;7.90;99.90;;;;;;4976163;28;20326;-54
2021/11/16 04:28:11;;;;;;;32.53;19.27;;;7.80;99.90;;;;;;4978911;28;20273;-53
2021/11/16 04:30:38;;;;;;;32.07;18.70;;;7.80;99.90;;;;;;4981051;28;20237;-53
2021/11/16 04:33:07;;;;;;;37.23;18.90;;;7.70;99.90;;;;;;4983283;28;20880;-51
2021/11/16 04:35:34;;;;;;;33.47;18.17;;;7.70;99.90;;;;;;4983241;28;20209;-51
2021/11/16 04:38:04;;;;;;;34.40;18.27;;;7.80;99.90;;;;;;4982889;28;20202;-54
2021/11/16 04:40:36;;;;;;;34.23;18.43;;;7.80;99.90;;;;;;4978409;28;20697;-53
2021/11/16 04:43:07;;;;;;;34.37;17.27;;;7.80;99.90;;;;;;4979392;28;21103;-52
2021/11/16 04:45:35;;;;;;;34.57;17.97;;;7.70;99.90;;;;;;4979652;28;20243;-51
2021/11/16 04:48:12;;;;;;;33.07;17.97;;;7.70;99.90;;;;;;4979527;28;20231;-53
2021/11/16 04:53:49;;;;;;;33.97;17.47;;;7.80;99.90;;;;;;4977064;28;20940;-53
2021/11/16 05:04:07;;;;;;;32.57;17.70;;;7.60;99.90;;;;;;4981171;28;20201;-52
2021/11/16 05:06:34;;;;;;;30.87;17.53;;;7.70;99.90;;;;;;4981915;28;20204;-54
2021/11/16 05:09:02;;;;;;;36.13;18.80;;;7.70;99.90;;;;;;4978593;28;20322;-52
2021/11/16 05:11:29;;;;;;;33.53;18.47;;;7.70;99.90;;;;;;4977399;28;20327;-53
2021/11/16 05:13:56;;;;;;;34.13;18.97;;;7.80;99.90;;;;;;4980097;28;20743;-52
2021/11/16 05:16:25;;;;;;;34.47;18.83;;;7.70;99.90;;;;;;4980952;28;20246;-53
2021/11/16 05:18:52;;;;;;;30.03;16.20;;;7.60;99.90;;;;;;4982087;28;20235;-53
2021/11/16 05:21:19;;;;;;;31.57;17.87;;;7.50;99.90;;;;;;4961687;28;20296;-53
2021/11/16 05:23:50;;;;;;;32.13;16.73;;;7.70;99.90;;;;;;4964889;28;20285;-52
2021/11/16 05:26:17;;;;;;;38.87;18.60;;;7.70;99.90;;;;;;4979852;28;20233;-54
2021/11/16 05:28:44;;;;;;;35.50;18.70;;;7.50;99.90;;;;;;4959840;28;20749;-53
2021/11/16 05:31:11;;;;;;;35.40;18.27;;;7.60;99.90;;;;;;4979634;28;20290;-51
2021/11/16 05:33:38;;;;;;;31.27;17.27;;;7.70;99.90;;;;;;4979357;28;20310;-51
2021/11/16 05:36:05;;;;;;;37.30;18.23;;;7.80;99.90;;;;;;4980026;28;20198;-53
2021/11/16 05:38:37;;;;;;;33.83;17.40;;;7.80;99.90;;;;;;4980636;28;21308;-52
2021/11/16 05:41:05;;;;;;;35.77;17.10;;;7.80;99.90;;;;;;4981107;28;20248;-54
2021/11/16 05:43:33;;;;;;;32.20;17.70;;;7.60;99.90;;;;;;4981043;28;20726;-52
2021/11/16 05:46:01;;;;;;;33.67;17.90;;;7.60;99.90;;;;;;4978976;28;20686;-53
2021/11/16 05:48:36;;;;;;;34.43;18.23;;;7.70;99.90;;;;;;4981319;28;20658;-53
2021/11/16 05:51:03;;;;;;;37.10;18.70;;;7.70;99.90;;;;;;4979275;28;20236;-55
2021/11/16 05:53:31;;;;;;;32.87;17.37;;;7.70;99.90;;;;;;4979750;28;20250;-53
2021/11/16 05:55:58;;;;;;;34.77;18.30;;;7.50;99.90;;;;;;4978107;28;20238;-51
2021/11/16 05:58:25;;;;;;;29.97;18.10;;;7.50;99.90;;;;;;4966828;28;20238;-55
2021/11/16 06:00:53;;;;;;;35.23;17.40;;;7.50;99.90;;;;;;4977919;28;20299;-52
2021/11/16 06:03:20;;;;;;;26.87;16.87;;;7.50;99.90;;;;;;4980759;28;20286;-54
2021/11/16 06:05:47;;;;;;;34.33;17.97;;;7.50;99.90;;;;;;4959285;28;21374;-51
2021/11/16 06:08:23;;;;;;;33.37;16.77;;;7.50;99.90;;;;;;4978617;28;20199;-54
2021/11/16 06:10:50;;;;;;;32.17;16.70;;;7.60;99.90;;;;;;4959612;28;20244;-54
2021/11/16 06:13:17;;;;;;;28.03;16.17;;;7.60;99.90;;;;;;4978020;28;20204;-52
2021/11/16 06:15:44;;;;;;;34.03;16.50;;;7.60;99.90;;;;;;4977453;28;20302;-52
2021/11/16 06:18:12;;;;;;;32.47;16.60;;;7.60;99.90;;;;;;4978809;28;20230;-52
2021/11/16 06:20:42;;;;;;;31.10;16.60;;;7.60;99.90;;;;;;4975987;28;20212;-53
2021/11/16 06:23:11;;;;;;;32.37;16.27;;;7.70;99.90;;;;;;4978153;28;20246;-54
2021/11/16 06:25:39;;;;;;;29.80;15.70;;;7.50;99.90;;;;;;4976981;28;20606;-53
2021/11/16 06:28:06;;;;;;;30.53;16.97;;;7.50;99.90;;;;;;4977115;28;20225;-52
2021/11/16 06:30:33;;;;;;;27.00;15.50;;;7.50;99.90;;;;;;4975948;28;20236;-52
2021/11/16 06:33:02;;;;;;;33.23;17.17;;;7.60;99.90;;;;;;4978905;28;20277;-55
2021/11/16 06:35:29;;;;;;;31.07;16.53;;;7.50;99.90;;;;;;4975646;28;20211;-52
2021/11/16 06:37:56;;;;;;;36.37;16.33;;;7.60;99.90;;;;;;4977581;28;20270;-52
2021/11/16 06:40:23;;;;;;;30.47;16.90;;;7.60;99.90;;;;;;4976797;28;20231;-55
2021/11/16 06:42:50;;;;;;;29.97;17.07;;;7.30;99.90;;;;;;4965878;28;20308;-52
2021/11/16 06:45:17;;;;;;;33.43;15.80;;;7.30;99.90;;;;;;4974443;28;20644;-54
2021/11/16 06:47:44;;;;;;;35.00;17.30;;;7.40;99.90;;;;;;4976698;28;20235;-53
2021/11/16 06:50:11;;;;;;;35.80;18.60;;;7.50;99.90;;;;;;4976323;28;20211;-52
2021/11/16 06:52:38;;;;;;;35.53;17.47;;;7.60;99.90;;;;;;4974781;28;20210;-52
2021/11/16 06:55:08;;;;;;;32.90;16.67;;;7.50;99.90;;;;;;4975195;28;20254;-53
2021/11/16 06:57:35;;;;;;;32.07;17.30;;;7.60;99.90;;;;;;4975516;28;20216;-53
2021/11/16 07:00:06;;;;;;;29.53;16.33;;;7.50;99.90;;;;;;4975652;28;20201;-54
2021/11/16 07:02:34;;;;;;;35.43;17.47;;;7.50;99.90;;;;;;4971918;28;20396;-53
2021/11/16 07:05:11;;;;;;;33.03;17.23;;;7.60;99.90;;;;;;4978975;28;20252;-52
2021/11/16 07:07:45;;;;;;;36.30;17.90;;;7.50;99.90;;;;;;5034694;28;20602;-54
2021/11/16 07:10:17;;;;;;;29.63;17.37;;;7.50;99.90;;;;;;5027892;28;20229;-52
2021/11/16 07:12:44;;;;;;;33.70;17.13;;;7.50;99.90;;;;;;5028337;28;20632;-53
2021/11/16 07:15:12;;;;;;;37.20;19.00;;;7.60;99.90;;;;;;5024940;28;20263;-52
2021/11/16 07:17:39;;;;;;;37.13;18.77;;;7.50;99.90;;;;;;5026365;28;20248;-53
2021/11/16 07:20:07;;;;;;;34.33;18.00;;;7.30;99.90;;;;;;5028258;28;20336;-54
2021/11/16 07:22:36;;;;;;;35.90;18.53;;;7.30;99.90;;;;;;5028178;28;20243;-54
2021/11/16 07:25:10;;;;;;;33.27;17.80;;;7.40;99.90;;;;;;5029258;28;20296;-54
2021/11/16 07:27:51;;;;;;;35.20;18.43;;;7.40;99.90;;;;;;5030618;28;20451;-52
2021/11/16 07:30:25;;;;;;;35.57;17.90;;;7.50;99.90;;;;;;5029222;28;20624;-53
2021/11/16 07:32:54;;;;;;;35.73;18.13;;;7.50;99.90;;;;;;5029757;28;20229;-54
2021/11/16 07:35:26;;;;;;;35.17;19.00;;;7.50;99.90;;;;;;5032829;28;20284;-53
2021/11/16 07:38:02;;;;;;;36.17;17.80;;;7.60;99.90;;;;;;5032006;28;20202;-51
2021/11/16 07:40:30;;;;;;;37.27;18.97;;;7.50;99.90;;;;;;5029038;28;20464;-54
2021/11/16 07:43:12;;;;;;;35.30;17.93;;;7.50;99.90;;;;;;5024606;28;21092;-54
2021/11/16 07:45:48;;;;;;;33.77;18.30;;;7.60;99.90;;;;;;5026591;28;20284;-53
2021/11/16 07:48:27;;;;;;;34.53;17.07;;;7.40;99.90;;;;;;5030053;28;20284;-52
2021/11/16 07:51:04;;;;;;;35.53;18.40;;;7.30;99.90;;;;;;5024555;28;20224;-54
2021/11/16 07:53:34;;;;;;;37.53;18.17;;;7.40;99.90;;;;;;5023305;28;20232;-54
2021/11/16 07:56:14;;;;;;;32.07;18.23;;;7.40;99.90;;;;;;5018798;28;20245;-52
2021/11/16 07:58:42;;;;;;;35.33;16.67;;;7.50;99.90;;;;;;5018001;28;20206;-54
2021/11/16 08:09:51;;;;;;;34.83;18.17;;;7.50;99.90;;;;;;5002057;28;20236;-54
2021/11/16 08:12:32;;;;;;;34.77;18.33;;;7.50;99.90;;;;;;5023885;28;20252;-52
2021/11/16 08:15:12;;;;;;;35.53;17.17;;;7.50;99.90;;;;;;5024051;28;20238;-53
2021/11/16 08:17:40;;;;;;;31.47;16.60;;;7.60;99.90;;;;;;5014733;28;20243;-52
2021/11/16 08:20:13;;;;;;;33.80;16.83;;;7.50;99.90;;;;;;5009866;28;20234;-52
2021/11/16 08:22:41;;;;;;;40.70;17.83;;;7.40;99.90;;;;;;5006778;28;20230;-52
2021/11/16 08:25:09;;;;;;;33.80;18.17;;;7.40;99.90;;;;;;5004855;28;20309;-52
2021/11/16 08:27:39;;;;;;;34.23;17.47;;;7.30;99.90;;;;;;5006112;28;20330;-53
2021/11/16 08:30:10;;;;;;;35.93;18.10;;;7.50;99.90;;;;;;5001747;28;20969;-54
2021/11/16 08:32:40;;;;;;;36.50;18.07;;;7.50;99.90;;;;;;5006732;28;22238;-53
2021/11/16 08:35:20;;;;;;;34.43;17.13;;;7.60;99.90;;;;;;5006590;28;20235;-52
2021/11/16 08:37:49;;;;;;;37.47;18.17;;;7.50;99.90;;;;;;5005240;28;20214;-52
2021/11/16 08:40:22;;;;;;;37.10;17.20;;;7.60;99.90;;;;;;5008847;28;20234;-53
2021/11/16 08:43:06;;;;;;;32.00;18.10;;;7.60;99.90;;;;;;5005841;28;20248;-52
2021/11/16 08:45:37;;;;;;;34.60;18.63;;;7.40;99.90;;;;;;4998463;28;20283;-53
2021/11/16 08:51:44;;;;;;;33.70;16.77;;;7.30;99.90;;;;;;5088069;27;20590;-53
2021/11/16 08:54:12;;;;;;;35.47;16.13;;;7.50;99.90;;;;;;5086885;28;20203;-52
2021/11/16 08:56:41;;;;;;;36.20;17.73;;;7.60;99.90;;;;;;5086156;28;20269;-52
2021/11/16 08:59:16;;;;;;;36.00;18.67;;;7.60;99.90;;;;;;5090053;28;20194;-54
2021/11/16 09:02:00;;;;;;;36.60;17.97;;;7.60;99.90;;;;;;5101028;28;21066;-53
2021/11/16 09:04:33;;;;;;;38.57;18.37;;;7.50;99.90;;;;;;5084808;28;20225;-52
2021/11/16 09:07:00;;;;;;;34.87;18.13;;;7.60;99.90;;;;;;5079062;28;20234;-52
2021/11/16 09:09:30;;;;;;;37.20;18.80;;;7.70;99.90;;;;;;5102704;28;20657;-53
2021/11/16 09:11:59;;;;;;;36.23;17.17;;;7.70;99.90;;;;;;5084121;28;20200;-53
2021/11/16 09:14:27;;;;;;;34.67;16.53;;;7.60;99.90;;;;;;5082071;28;20200;-53
2021/11/16 09:16:54;;;;;;;33.93;17.60;;;7.50;99.90;;;;;;5083238;28;20310;-53
2021/11/16 09:19:32;;;;;;;34.70;17.30;;;7.50;99.90;;;;;;5065298;28;20750;-53
2021/11/16 09:22:00;;;;;;;33.17;16.83;;;7.60;99.90;;;;;;5050563;28;20198;-51
2021/11/16 09:24:33;;;;;;;33.93;16.63;;;7.60;99.90;;;;;;5052711;28;20268;-53
2021/11/16 09:29:38;;;;;;;30.13;16.00;;;7.60;99.90;;;;;;5047888;28;20241;-52
2021/11/16 09:32:11;;;;;;;37.60;17.10;;;7.40;99.90;;;;;;5064872;28;20964;-54
2021/11/16 09:34:40;;;;;;;32.73;17.03;;;7.20;99.90;;;;;;5047153;28;20369;-52
2021/11/16 09:37:13;;;;;;;33.77;16.30;;;7.00;99.90;;;;;;5065228;28;20299;-53
2021/11/16 09:39:49;;;;;;;35.50;17.33;;;6.90;99.90;;;;;;5050271;28;20316;-53
2021/11/16 09:42:29;;;;;;;31.00;17.57;;;6.70;99.90;;;;;;5049500;28;20231;-55
2021/11/16 09:45:12;;;;;;;33.50;16.43;;;6.70;99.90;;;;;;5068761;28;20316;-52
2021/11/16 09:47:41;;;;;;;37.17;17.83;;;6.90;99.90;;;;;;5052112;28;20213;-52
2021/11/16 09:50:18;;;;;;;35.33;16.93;;;7.30;99.90;;;;;;5051473;28;20265;-53
2021/11/16 09:52:49;;;;;;;33.20;17.23;;;7.30;99.90;;;;;;5049889;28;20938;-54
2021/11/16 09:55:29;;;;;;;30.80;16.47;;;7.30;99.90;;;;;;5051323;28;20291;-54
2021/11/16 09:58:05;;;;;;;38.47;17.93;;;7.50;99.90;;;;;;5063116;28;20288;-52
2021/11/16 10:00:41;;;;;;;36.93;16.83;;;7.40;99.90;;;;;;5042595;28;20211;-52
2021/11/16 10:03:15;;;;;;;31.10;16.83;;;7.40;99.90;;;;;;5031682;28;20208;-53
2021/11/16 10:05:52;;;;;;;35.33;17.30;;;7.50;99.90;;;;;;5038694;28;20215;-54
2021/11/16 10:08:22;;;;;;;34.33;16.73;;;7.20;99.90;;;;;;5037388;28;20207;-52
2021/11/16 10:10:53;;;;;;;31.70;16.90;;;7.20;99.90;;;;;;5038275;28;20222;-54
2021/11/16 10:13:24;;;;;;;33.00;16.90;;;7.10;99.90;;;;;;5037787;28;21111;-54
2021/11/16 10:15:55;;;;;;;29.60;14.97;;;7.00;99.90;;;;;;5034242;28;20606;-54
2021/11/16 10:18:24;;;;;;;33.70;16.73;;;7.20;99.90;;;;;;5034563;28;20252;-52
2021/11/16 10:20:52;;;;;;;35.57;16.23;;;7.40;99.90;;;;;;5035708;28;20593;-52
2021/11/16 10:23:41;;;;;;;32.17;17.73;;;7.20;99.90;;;;;;5037062;28;20237;-53
2021/11/16 10:26:09;;;;;;;33.53;16.70;;;7.30;99.90;;;;;;5033556;28;20274;-52
2021/11/16 10:28:39;;;;;;;33.17;17.53;;;7.10;99.90;;;;;;5030630;28;20398;-51
2021/11/16 10:31:06;;;;;;;31.63;15.17;;;7.10;99.90;;;;;;5031567;28;20210;-52
2021/11/16 10:33:39;;;;;;;28.47;16.13;;;7.30;99.90;;;;;;5035410;28;20206;-55
2021/11/16 10:36:13;;;;;;;36.63;16.33;;;7.30;99.90;;;;;;5036134;28;20245;-51
2021/11/16 10:38:45;;;;;;;37.80;17.63;;;7.50;99.90;;;;;;5036701;28;20677;-51
2021/11/16 10:41:15;;;;;;;34.57;16.10;;;7.10;99.90;;;;;;5039005;28;21035;-51
2021/11/16 10:43:44;;;;;;;32.77;16.20;;;6.90;99.90;;;;;;5033972;28;20288;-52
2021/11/16 10:46:11;;;;;;;34.47;16.60;;;6.60;99.90;;;;;;5033753;28;20703;-51
2021/11/16 10:48:39;;;;;;;32.93;16.67;;;6.50;99.90;;;;;;5033041;28;20210;-53
2021/11/16 10:51:09;;;;;;;31.70;16.50;;;6.80;99.90;;;;;;5035256;28;20442;-51
2021/11/16 10:53:36;;;;;;;29.10;15.17;;;7.00;99.90;;;;;;5032389;28;20268;-53
2021/11/16 10:56:06;;;;;;;38.37;17.50;;;7.10;99.90;;;;;;5030590;28;20203;-53
2021/11/16 10:58:34;;;;;;;35.70;16.30;;;7.00;99.90;;;;;;5030864;28;20235;-52
2021/11/16 11:01:12;;;;;;;34.17;15.53;;;7.00;99.90;;;;;;5033351;28;20243;-52
2021/11/16 11:03:43;;;;;;;31.03;14.93;;;6.90;99.90;;;;;;5031569;28;20218;-53
2021/11/16 11:06:18;;;;;;;33.73;15.60;;;7.00;99.90;;;;;;5045549;28;20205;-52
2021/11/16 11:08:57;;;;;;;31.10;16.27;;;6.70;99.90;;;;;;5029698;28;20217;-51
2021/11/16 11:11:34;;;;;;;32.80;16.10;;;6.60;99.90;;;;;;5048148;28;20575;-53
2021/11/16 11:14:15;;;;;;;33.40;16.33;;;6.70;99.90;;;;;;5032117;28;20244;-51
2021/11/16 11:16:46;;;;;;;33.93;14.17;;;6.70;99.90;;;;;;5030143;28;20292;-52
2021/11/16 11:19:18;;;;;;;32.30;15.70;;;6.60;99.90;;;;;;5031485;28;20224;-53
2021/11/16 11:21:57;;;;;;;30.47;13.67;;;7.00;99.90;;;;;;5026583;28;20665;-53
2021/11/16 11:24:59;;;;;;;30.00;15.63;;;7.10;99.90;;;;;;5031448;28;20283;-60
2021/11/16 11:27:34;;;;;;;29.47;13.30;;;7.10;99.90;;;;;;5028576;28;21246;-59
2021/11/16 11:30:11;;;;;;;28.83;14.87;;;7.00;99.90;;;;;;5034237;28;20309;-58
2021/11/16 11:32:41;;;;;;;32.60;14.77;;;7.00;99.90;;;;;;5031209;28;20225;-61
2021/11/16 11:35:09;;;;;;;33.93;16.87;;;7.20;99.90;;;;;;5032085;28;20295;-59
2021/11/16 11:37:49;;;;;;;30.77;15.43;;;7.40;99.90;;;;;;5033110;28;20202;-62
2021/11/16 11:40:30;;;;;;;33.53;15.43;;;7.40;99.90;;;;;;5034999;28;20195;-53
2021/11/16 11:43:03;;;;;;;33.03;16.60;;;7.30;99.90;;;;;;5035452;28;20214;-51
2021/11/16 11:45:39;;;;;;;35.70;16.27;;;7.20;99.90;;;;;;5028960;28;20221;-52
2021/11/16 11:48:06;;;;;;;34.07;16.23;;;7.40;99.90;;;;;;5033437;28;20210;-52
2021/11/16 11:50:35;;;;;;;33.63;15.93;;;7.60;99.90;;;;;;5030483;28;21005;-53
2021/11/16 11:53:24;;;;;;;35.43;16.30;;;7.60;99.90;;;;;;5030938;28;20300;-53
2021/11/16 11:55:55;;;;;;;34.10;15.27;;;7.70;99.90;;;;;;5033278;28;20338;-52
2021/11/16 11:58:25;;;;;;;27.77;14.03;;;7.60;99.90;;;;;;5028969;28;20198;-51
2021/11/16 12:00:56;;;;;;;32.63;15.67;;;7.70;99.90;;;;;;5029068;28;20297;-51
2021/11/16 12:03:24;;;;;;;31.87;14.97;;;7.70;99.90;;;;;;5031448;28;20303;-55
2021/11/16 12:05:51;;;;;;;31.63;15.33;;;7.70;99.90;;;;;;5030700;28;20236;-51
2021/11/16 12:08:19;;;;;;;36.97;16.63;;;7.70;99.90;;;;;;5029550;28;20630;-51
2021/11/16 12:10:48;;;;;;;28.83;14.60;;;7.50;99.90;;;;;;5032250;28;20213;-52
2021/11/16 12:13:25;;;;;;;35.60;15.50;;;7.10;99.90;;;;;;5032117;28;20574;-52
2021/11/16 12:16:05;;;;;;;33.77;15.73;;;7.30;99.90;;;;;;5030271;28;20205;-55
2021/11/16 12:18:40;;;;;;;33.13;15.80;;;7.30;99.90;;;;;;5032172;28;20329;-53
2021/11/16 12:21:28;;;;;;;33.70;16.30;;;7.20;99.90;;;;;;5033982;28;20284;-51
2021/11/16 12:24:00;;;;;;;35.10;16.17;;;7.30;99.90;;;;;;5030162;28;20968;-52
2021/11/16 12:26:31;;;;;;;34.87;17.13;;;7.40;99.90;;;;;;5030623;28;20277;-53
2021/11/16 12:29:14;;;;;;;35.33;16.57;;;7.70;99.90;;;;;;5032082;28;20241;-52
2021/11/16 12:31:43;;;;;;;32.37;16.50;;;7.40;99.90;;;;;;5032333;28;20309;-55
2021/11/16 12:34:10;;;;;;;28.23;15.33;;;7.60;99.90;;;;;;5030511;28;20322;-53
2021/11/16 12:36:48;;;;;;;33.80;16.03;;;7.40;99.90;;;;;;5029939;28;20355;-51
2021/11/16 12:39:24;;;;;;;30.77;16.27;;;7.50;99.90;;;;;;5035125;28;20295;-53
2021/11/16 12:41:54;;;;;;;34.30;16.37;;;7.50;99.90;;;;;;5032104;28;20855;-53
2021/11/16 12:44:47;;;;;;;34.40;16.63;;;7.40;99.90;;;;;;5037858;28;20203;-52
2021/11/16 12:47:15;;;;;;;31.97;15.70;;;7.60;99.90;;;;;;5038685;28;20218;-53
2021/11/16 12:49:45;;;;;;;33.83;16.63;;;7.60;99.90;;;;;;5044717;28;20890;-53
2021/11/16 12:52:16;;;;;;;32.57;16.13;;;7.70;99.90;;;;;;5050327;28;20226;-53
2021/11/16 12:54:43;;;;;;;37.00;16.47;;;7.60;99.90;;;;;;5042539;28;20255;-51
2021/11/16 12:57:21;;;;;;;35.60;16.63;;;7.60;99.90;;;;;;5046388;28;20293;-54
2021/11/16 12:59:51;;;;;;;30.03;15.93;;;7.30;99.90;;;;;;5040714;28;20226;-52
2021/11/16 13:02:32;;;;;;;33.07;15.70;;;7.20;99.90;;;;;;5057522;28;20282;-53
2021/11/16 13:05:11;;;;;;;31.27;15.83;;;7.40;99.90;;;;;;5043493;28;20204;-52
2021/11/16 13:07:51;;;;;;;31.53;14.80;;;7.50;99.90;;;;;;5040134;28;20233;-51
2021/11/16 13:10:24;;;;;;;32.63;16.30;;;7.60;99.90;;;;;;5038172;28;20291;-53
2021/11/16 13:12:59;;;;;;;33.53;17.27;;;7.30;99.90;;;;;;5047261;28;20560;-53
2021/11/16 13:15:28;;;;;;;30.37;15.83;;;7.50;99.90;;;;;;5044860;28;20228;-52
2021/11/16 13:18:16;;;;;;;28.10;15.57;;;7.60;99.90;;;;;;5039488;28;20950;-53
2021/11/16 13:20:50;;;;;;;33.47;16.40;;;7.30;99.90;;;;;;5046883;28;20303;-53